Airfield :
LOGIN :

Register | Disclaimer

   EN    FR    IT 

 










Legend :    VFR   Marginal VFR   IFR   Intensive IFR   Very Intensive IFR
Visi :
Ceiling :
>= 8 km
>= 3000ft
5 to 8 km
1000 to 3000 ft
1500m to 5 km
500 to 1000 ft
800 to 1500m
200 to 500 ft
< 800m
< 200 ft
Symbols :   Thunderstorms  Fog  Heavy snow  Heavy precipitations  Wind > 20 kt
SIGMETs :     Misc.  Thunderstorms  Icing  Turbulence  Mountain Waves  Volcanic Ashes







- Airport Elevation : 46 ft
- IATA code : SNN


EINN - Shannon

CURRENT METAR :
  • 201930Z 25012KT 9999 FEW025 BKN050 17/13 Q1012 NOSIG

EXPIRED METARs :
  • 201900Z 25013KT 9999 FEW022 BKN050 17/12 Q1012 NOSIG
  • 201830Z 24014KT 9999 FEW022 SCT050 17/12 Q1012 NOSIG
  • 201800Z 25013KT 9999 FEW024 SCT060 18/12 Q1011 NOSIG
  • 201730Z 25015KT 9999 FEW025 BKN060 18/12 Q1011 NOSIG
  • 201700Z 25013KT 9999 FEW026 BKN060 18/11 Q1011 NOSIG

TAF TAF EINN
Valid from the 20 at 18:00 until the 21 at 18:00 UTC


201700Z 2018/2118 25012KT 9999 FEW020 BKN030
BECMG 2020/2022 24007KT
BECMG 2022/2024 19008KT
BECMG 2101/2104 16010KT
PROB30
TEMPO 2102/2105 4000 BR
PROB40
TEMPO 2106/2108 BKN012
BECMG 2107/2109 19014KT
TEMPO 2112/2117 20015G26KT
TEMPO 2112/2115 4000 RA BKN010
TEMPO 2115/2118 3000 -RA BR BKN006
PROB30
TEMPO 2115/2117 RA
No reported NOTAMs for that airfield.



MET'MAP, your aeronautical weather chart ! - Copyright ORBIFLY December 2007 - Disclaimer

ORBIFLY MET'MAP TEAM :

Programming & Development : Alexandra Zaïnal
Concept & Development : Baudouin d'Aumeries
Co-Development & Prog : Marc-Olivier Méhu
Technical & hardware support : Manuel Goepfert

Contact : metmap@orbifly.com




SOURCES & CREDITS :

   NOAA